sensor_id;sensor_type;location;lat;lon;timestamp;temperature;humidity
17891;DHT22;9071;48.220;14.480;2023-06-05T00:00:48;16.00;99.90
17891;DHT22;9071;48.220;14.480;2023-06-05T00:05:50;16.00;99.90
17891;DHT22;9071;48.220;14.480;2023-06-05T00:10:54;16.10;99.90
17891;DHT22;9071;48.220;14.480;2023-06-05T00:15:56;16.10;99.90
17891;DHT22;9071;48.220;14.480;2023-06-05T00:20:58;16.20;99.90
17891;DHT22;9071;48.220;14.480;2023-06-05T00:26:01;16.10;99.90
17891;DHT22;9071;48.220;14.480;2023-06-05T00:31:03;16.00;99.90
17891;DHT22;9071;48.220;14.480;2023-06-05T00:36:06;16.10;99.90
17891;DHT22;9071;48.220;14.480;2023-06-05T00:41:09;15.90;99.90
17891;DHT22;9071;48.220;14.480;2023-06-05T00:46:11;15.70;99.90
17891;DHT22;9071;48.220;14.480;2023-06-05T00:51:13;15.70;99.90
17891;DHT22;9071;48.220;14.480;2023-06-05T00:56:18;15.70;99.90
17891;DHT22;9071;48.220;14.480;2023-06-05T01:01:21;15.70;99.90
17891;DHT22;9071;48.220;14.480;2023-06-05T01:06:25;15.70;99.90
17891;DHT22;9071;48.220;14.480;2023-06-05T01:11:34;15.70;99.90
17891;DHT22;9071;48.220;14.480;2023-06-05T01:16:39;15.70;99.90
17891;DHT22;9071;48.220;14.480;2023-06-05T01:21:43;15.70;99.90
17891;DHT22;9071;48.220;14.480;2023-06-05T01:27:05;15.80;99.90
17891;DHT22;9071;48.220;14.480;2023-06-05T01:32:13;15.80;99.90
17891;DHT22;9071;48.220;14.480;2023-06-05T01:37:17;15.80;99.90
17891;DHT22;9071;48.220;14.480;2023-06-05T01:42:23;15.80;99.90
17891;DHT22;9071;48.220;14.480;2023-06-05T01:47:26;15.70;99.90
17891;DHT22;9071;48.220;14.480;2023-06-05T01:52:28;15.70;99.90
17891;DHT22;9071;48.220;14.480;2023-06-05T01:57:31;15.80;99.90
17891;DHT22;9071;48.220;14.480;2023-06-05T02:02:34;15.80;99.90
17891;DHT22;9071;48.220;14.480;2023-06-05T02:07:39;15.80;99.90
17891;DHT22;9071;48.220;14.480;2023-06-05T02:12:42;15.90;99.90
17891;DHT22;9071;48.220;14.480;2023-06-05T02:17:45;15.80;99.90
17891;DHT22;9071;48.220;14.480;2023-06-05T02:22:51;15.80;99.90
17891;DHT22;9071;48.220;14.480;2023-06-05T02:27:56;15.80;99.90
17891;DHT22;9071;48.220;14.480;2023-06-05T02:32:58;15.70;99.90
17891;DHT22;9071;48.220;14.480;2023-06-05T02:38:01;15.60;99.90
17891;DHT22;9071;48.220;14.480;2023-06-05T02:43:07;15.50;99.90
17891;DHT22;9071;48.220;14.480;2023-06-05T02:48:09;15.50;99.90
17891;DHT22;9071;48.220;14.480;2023-06-05T02:53:11;15.40;99.90
17891;DHT22;9071;48.220;14.480;2023-06-05T02:58:17;15.40;99.90
17891;DHT22;9071;48.220;14.480;2023-06-05T03:03:20;15.40;99.90
17891;DHT22;9071;48.220;14.480;2023-06-05T03:08:26;15.40;99.90
17891;DHT22;9071;48.220;14.480;2023-06-05T03:13:29;15.40;99.90
17891;DHT22;9071;48.220;14.480;2023-06-05T03:18:32;15.30;99.90
17891;DHT22;9071;48.220;14.480;2023-06-05T03:23:35;15.40;99.90
17891;DHT22;9071;48.220;14.480;2023-06-05T03:28:38;15.40;99.90
17891;DHT22;9071;48.220;14.480;2023-06-05T03:33:40;15.40;99.90
17891;DHT22;9071;48.220;14.480;2023-06-05T03:38:42;15.50;99.90
17891;DHT22;9071;48.220;14.480;2023-06-05T03:43:46;15.50;99.90
17891;DHT22;9071;48.220;14.480;2023-06-05T03:48:48;15.50;99.90
17891;DHT22;9071;48.220;14.480;2023-06-05T03:53:50;15.50;99.90
17891;DHT22;9071;48.220;14.480;2023-06-05T03:58:56;15.50;99.90
17891;DHT22;9071;48.220;14.480;2023-06-05T04:03:58;15.60;99.90
17891;DHT22;9071;48.220;14.480;2023-06-05T04:09:01;15.80;99.90
17891;DHT22;9071;48.220;14.480;2023-06-05T04:14:05;16.00;99.90
17891;DHT22;9071;48.220;14.480;2023-06-05T04:19:07;16.20;99.90
17891;DHT22;9071;48.220;14.480;2023-06-05T04:24:10;16.30;99.90
17891;DHT22;9071;48.220;14.480;2023-06-05T04:29:13;16.50;99.90
17891;DHT22;9071;48.220;14.480;2023-06-05T04:34:16;16.60;99.90
17891;DHT22;9071;48.220;14.480;2023-06-05T04:39:18;16.70;99.90
17891;DHT22;9071;48.220;14.480;2023-06-05T04:44:22;16.80;99.90
17891;DHT22;9071;48.220;14.480;2023-06-05T04:49:24;16.70;99.90
17891;DHT22;9071;48.220;14.480;2023-06-05T04:54:26;16.80;99.90
17891;DHT22;9071;48.220;14.480;2023-06-05T04:59:29;16.90;99.90
17891;DHT22;9071;48.220;14.480;2023-06-05T05:04:33;17.00;99.90
17891;DHT22;9071;48.220;14.480;2023-06-05T05:09:36;17.00;99.90
17891;DHT22;9071;48.220;14.480;2023-06-05T05:14:39;17.10;99.90
17891;DHT22;9071;48.220;14.480;2023-06-05T05:19:41;17.20;99.90
17891;DHT22;9071;48.220;14.480;2023-06-05T05:24:43;17.20;99.90
17891;DHT22;9071;48.220;14.480;2023-06-05T05:29:47;17.40;99.90
17891;DHT22;9071;48.220;14.480;2023-06-05T05:34:49;17.40;99.90
17891;DHT22;9071;48.220;14.480;2023-06-05T05:39:52;17.30;99.90
17891;DHT22;9071;48.220;14.480;2023-06-05T05:44:56;17.40;99.90
17891;DHT22;9071;48.220;14.480;2023-06-05T05:49:58;17.60;99.90
17891;DHT22;9071;48.220;14.480;2023-06-05T05:55:00;17.90;99.90
17891;DHT22;9071;48.220;14.480;2023-06-05T06:00:06;18.10;99.90
17891;DHT22;9071;48.220;14.480;2023-06-05T06:05:13;18.50;99.90
17891;DHT22;9071;48.220;14.480;2023-06-05T06:10:15;18.60;99.90
17891;DHT22;9071;48.220;14.480;2023-06-05T06:15:19;19.10;99.90
17891;DHT22;9071;48.220;14.480;2023-06-05T06:20:21;19.40;99.90
17891;DHT22;9071;48.220;14.480;2023-06-05T06:25:23;19.90;99.90
17891;DHT22;9071;48.220;14.480;2023-06-05T06:30:30;20.20;99.90
17891;DHT22;9071;48.220;14.480;2023-06-05T06:35:32;20.50;99.90
17891;DHT22;9071;48.220;14.480;2023-06-05T06:40:35;20.70;99.90
17891;DHT22;9071;48.220;14.480;2023-06-05T06:45:39;20.10;99.90
17891;DHT22;9071;48.220;14.480;2023-06-05T06:50:41;20.50;99.90
17891;DHT22;9071;48.220;14.480;2023-06-05T06:55:43;21.10;99.90
17891;DHT22;9071;48.220;14.480;2023-06-05T07:00:46;22.80;99.90
17891;DHT22;9071;48.220;14.480;2023-06-05T07:05:49;25.40;99.90
17891;DHT22;9071;48.220;14.480;2023-06-05T07:10:52;27.60;99.90
17891;DHT22;9071;48.220;14.480;2023-06-05T07:15:57;27.10;99.90
17891;DHT22;9071;48.220;14.480;2023-06-05T07:20:59;27.20;99.90
17891;DHT22;9071;48.220;14.480;2023-06-05T07:26:02;27.80;99.90
17891;DHT22;9071;48.220;14.480;2023-06-05T07:31:05;29.30;99.90
17891;DHT22;9071;48.220;14.480;2023-06-05T07:36:07;27.70;99.90
17891;DHT22;9071;48.220;14.480;2023-06-05T07:41:11;27.70;99.90
17891;DHT22;9071;48.220;14.480;2023-06-05T07:46:14;27.50;99.90
17891;DHT22;9071;48.220;14.480;2023-06-05T07:51:17;26.10;99.90
17891;DHT22;9071;48.220;14.480;2023-06-05T07:56:19;24.70;99.90
17891;DHT22;9071;48.220;14.480;2023-06-05T08:01:25;25.10;99.90
17891;DHT22;9071;48.220;14.480;2023-06-05T08:06:28;25.10;99.90
17891;DHT22;9071;48.220;14.480;2023-06-05T08:11:30;25.30;99.90
17891;DHT22;9071;48.220;14.480;2023-06-05T08:16:34;25.40;99.90
17891;DHT22;9071;48.220;14.480;2023-06-05T08:21:36;24.80;99.90
17891;DHT22;9071;48.220;14.480;2023-06-05T08:26:38;24.60;99.90
17891;DHT22;9071;48.220;14.480;2023-06-05T08:31:42;24.40;99.90
17891;DHT22;9071;48.220;14.480;2023-06-05T08:36:44;23.90;99.90
17891;DHT22;9071;48.220;14.480;2023-06-05T08:41:49;23.60;99.90
17891;DHT22;9071;48.220;14.480;2023-06-05T08:46:59;23.50;99.90
17891;DHT22;9071;48.220;14.480;2023-06-05T08:52:05;23.50;99.90
17891;DHT22;9071;48.220;14.480;2023-06-05T08:57:08;23.60;99.90
17891;DHT22;9071;48.220;14.480;2023-06-05T09:02:12;23.20;99.90
17891;DHT22;9071;48.220;14.480;2023-06-05T09:07:15;22.90;99.90
17891;DHT22;9071;48.220;14.480;2023-06-05T09:12:17;22.80;99.90
17891;DHT22;9071;48.220;14.480;2023-06-05T09:17:21;23.30;99.90
17891;DHT22;9071;48.220;14.480;2023-06-05T09:22:32;23.20;99.90
17891;DHT22;9071;48.220;14.480;2023-06-05T09:27:35;23.40;99.90
17891;DHT22;9071;48.220;14.480;2023-06-05T09:32:40;23.40;99.90
17891;DHT22;9071;48.220;14.480;2023-06-05T09:37:43;23.40;99.90
17891;DHT22;9071;48.220;14.480;2023-06-05T09:42:47;23.50;99.90
17891;DHT22;9071;48.220;14.480;2023-06-05T09:47:50;23.20;99.90
17891;DHT22;9071;48.220;14.480;2023-06-05T09:52:53;22.90;99.90
17891;DHT22;9071;48.220;14.480;2023-06-05T09:57:58;23.10;99.90
17891;DHT22;9071;48.220;14.480;2023-06-05T10:03:07;23.30;99.90
17891;DHT22;9071;48.220;14.480;2023-06-05T10:08:12;23.30;99.90
17891;DHT22;9071;48.220;14.480;2023-06-05T10:13:15;23.70;99.90
17891;DHT22;9071;48.220;14.480;2023-06-05T10:18:18;23.70;99.90
17891;DHT22;9071;48.220;14.480;2023-06-05T10:23:21;23.60;99.90
17891;DHT22;9071;48.220;14.480;2023-06-05T10:28:37;23.70;99.90
17891;DHT22;9071;48.220;14.480;2023-06-05T10:33:54;24.10;99.90
17891;DHT22;9071;48.220;14.480;2023-06-05T10:38:59;24.00;99.90
17891;DHT22;9071;48.220;14.480;2023-06-05T10:44:02;24.10;99.90
17891;DHT22;9071;48.220;14.480;2023-06-05T10:49:13;23.90;99.90
17891;DHT22;9071;48.220;14.480;2023-06-05T11:00:05;23.70;99.90
17891;DHT22;9071;48.220;14.480;2023-06-05T11:05:13;23.40;99.90
17891;DHT22;9071;48.220;14.480;2023-06-05T11:10:16;23.30;99.90
17891;DHT22;9071;48.220;14.480;2023-06-05T11:15:43;23.20;99.90
17891;DHT22;9071;48.220;14.480;2023-06-05T11:20:53;23.20;99.90
17891;DHT22;9071;48.220;14.480;2023-06-05T11:25:57;23.60;99.90
17891;DHT22;9071;48.220;14.480;2023-06-05T11:30:59;23.80;99.90
17891;DHT22;9071;48.220;14.480;2023-06-05T11:36:05;23.80;99.90
17891;DHT22;9071;48.220;14.480;2023-06-05T11:41:09;23.80;99.90
17891;DHT22;9071;48.220;14.480;2023-06-05T11:46:11;23.80;99.90
17891;DHT22;9071;48.220;14.480;2023-06-05T11:51:14;23.80;99.90
17891;DHT22;9071;48.220;14.480;2023-06-05T11:56:17;23.50;99.90
17891;DHT22;9071;48.220;14.480;2023-06-05T12:01:19;23.30;99.90
17891;DHT22;9071;48.220;14.480;2023-06-05T12:06:24;23.10;99.90
17891;DHT22;9071;48.220;14.480;2023-06-05T12:11:27;23.10;99.90
17891;DHT22;9071;48.220;14.480;2023-06-05T12:16:31;23.00;99.90
17891;DHT22;9071;48.220;14.480;2023-06-05T12:21:34;22.70;99.90
17891;DHT22;9071;48.220;14.480;2023-06-05T12:26:50;22.40;99.90
17891;DHT22;9071;48.220;14.480;2023-06-05T12:31:54;22.30;99.90
17891;DHT22;9071;48.220;14.480;2023-06-05T12:36:58;22.20;99.90
17891;DHT22;9071;48.220;14.480;2023-06-05T12:42:00;22.10;99.90
17891;DHT22;9071;48.220;14.480;2023-06-05T12:47:02;22.00;99.90
17891;DHT22;9071;48.220;14.480;2023-06-05T12:52:06;21.90;99.90
17891;DHT22;9071;48.220;14.480;2023-06-05T12:57:09;21.80;99.90
17891;DHT22;9071;48.220;14.480;2023-06-05T13:02:11;21.60;99.90
17891;DHT22;9071;48.220;14.480;2023-06-05T13:07:14;21.50;99.90
17891;DHT22;9071;48.220;14.480;2023-06-05T13:12:17;21.40;99.90
17891;DHT22;9071;48.220;14.480;2023-06-05T13:17:19;21.50;99.90
17891;DHT22;9071;48.220;14.480;2023-06-05T13:22:23;21.50;99.90
17891;DHT22;9071;48.220;14.480;2023-06-05T13:27:26;21.50;99.90
17891;DHT22;9071;48.220;14.480;2023-06-05T13:32:28;21.50;99.90
17891;DHT22;9071;48.220;14.480;2023-06-05T13:37:32;21.70;99.90
17891;DHT22;9071;48.220;14.480;2023-06-05T13:42:34;21.80;99.90
17891;DHT22;9071;48.220;14.480;2023-06-05T13:47:36;21.60;99.90
17891;DHT22;9071;48.220;14.480;2023-06-05T13:52:40;21.40;99.90
17891;DHT22;9071;48.220;14.480;2023-06-05T13:57:42;21.30;99.90
17891;DHT22;9071;48.220;14.480;2023-06-05T14:02:44;21.10;99.90
17891;DHT22;9071;48.220;14.480;2023-06-05T14:07:48;21.10;99.90
17891;DHT22;9071;48.220;14.480;2023-06-05T14:12:52;21.00;99.90
17891;DHT22;9071;48.220;14.480;2023-06-05T14:17:54;20.90;99.90
17891;DHT22;9071;48.220;14.480;2023-06-05T14:22:58;20.70;99.90
17891;DHT22;9071;48.220;14.480;2023-06-05T14:28:00;20.50;99.90
17891;DHT22;9071;48.220;14.480;2023-06-05T14:33:02;20.40;99.90
17891;DHT22;9071;48.220;14.480;2023-06-05T14:38:06;20.20;99.90
17891;DHT22;9071;48.220;14.480;2023-06-05T14:43:08;20.10;99.90
17891;DHT22;9071;48.220;14.480;2023-06-05T14:48:10;20.20;99.90
17891;DHT22;9071;48.220;14.480;2023-06-05T14:53:13;20.20;99.90
17891;DHT22;9071;48.220;14.480;2023-06-05T14:58:16;20.20;99.90
17891;DHT22;9071;48.220;14.480;2023-06-05T15:03:18;20.10;99.90
17891;DHT22;9071;48.220;14.480;2023-06-05T15:08:21;20.00;99.90
17891;DHT22;9071;48.220;14.480;2023-06-05T15:13:23;19.90;99.90
17891;DHT22;9071;48.220;14.480;2023-06-05T15:18:26;19.90;99.90
17891;DHT22;9071;48.220;14.480;2023-06-05T15:23:29;19.80;99.90
17891;DHT22;9071;48.220;14.480;2023-06-05T15:28:31;19.80;99.90
17891;DHT22;9071;48.220;14.480;2023-06-05T15:33:33;19.80;99.90
17891;DHT22;9071;48.220;14.480;2023-06-05T15:38:36;19.70;99.90
17891;DHT22;9071;48.220;14.480;2023-06-05T15:43:39;19.60;99.90
17891;DHT22;9071;48.220;14.480;2023-06-05T15:48:41;19.60;99.90
17891;DHT22;9071;48.220;14.480;2023-06-05T15:53:44;19.50;99.90
17891;DHT22;9071;48.220;14.480;2023-06-05T15:58:46;19.50;99.90
17891;DHT22;9071;48.220;14.480;2023-06-05T16:03:48;19.40;99.90
17891;DHT22;9071;48.220;14.480;2023-06-05T16:08:52;19.30;99.90
17891;DHT22;9071;48.220;14.480;2023-06-05T16:13:54;19.30;99.90
17891;DHT22;9071;48.220;14.480;2023-06-05T16:18:56;19.30;99.90
17891;DHT22;9071;48.220;14.480;2023-06-05T16:24:01;19.50;99.90
17891;DHT22;9071;48.220;14.480;2023-06-05T16:29:04;19.50;99.90
17891;DHT22;9071;48.220;14.480;2023-06-05T16:34:09;19.40;99.90
17891;DHT22;9071;48.220;14.480;2023-06-05T16:39:13;19.30;99.90
17891;DHT22;9071;48.220;14.480;2023-06-05T16:44:16;19.20;99.90
17891;DHT22;9071;48.220;14.480;2023-06-05T16:49:18;19.20;99.90
17891;DHT22;9071;48.220;14.480;2023-06-05T16:54:22;19.00;99.90
17891;DHT22;9071;48.220;14.480;2023-06-05T16:59:24;18.90;99.90
17891;DHT22;9071;48.220;14.480;2023-06-05T17:04:27;18.70;99.90
17891;DHT22;9071;48.220;14.480;2023-06-05T17:09:30;18.60;99.90
17891;DHT22;9071;48.220;14.480;2023-06-05T17:14:32;18.50;99.90
17891;DHT22;9071;48.220;14.480;2023-06-05T17:19:34;18.40;99.90
17891;DHT22;9071;48.220;14.480;2023-06-05T17:24:38;18.30;99.90
17891;DHT22;9071;48.220;14.480;2023-06-05T17:29:40;18.30;99.90
17891;DHT22;9071;48.220;14.480;2023-06-05T17:34:42;18.20;99.90
17891;DHT22;9071;48.220;14.480;2023-06-05T17:39:45;18.20;99.90
17891;DHT22;9071;48.220;14.480;2023-06-05T17:44:47;18.10;99.90
17891;DHT22;9071;48.220;14.480;2023-06-05T17:49:50;18.00;99.90
17891;DHT22;9071;48.220;14.480;2023-06-05T17:54:53;17.90;99.90
17891;DHT22;9071;48.220;14.480;2023-06-05T17:59:55;17.80;99.90
17891;DHT22;9071;48.220;14.480;2023-06-05T18:04:57;17.80;99.90
17891;DHT22;9071;48.220;14.480;2023-06-05T18:10:01;17.70;99.90
17891;DHT22;9071;48.220;14.480;2023-06-05T18:15:04;17.60;99.90
17891;DHT22;9071;48.220;14.480;2023-06-05T18:20:07;17.60;99.90
17891;DHT22;9071;48.220;14.480;2023-06-05T18:25:11;17.50;99.90
17891;DHT22;9071;48.220;14.480;2023-06-05T18:30:14;17.50;99.90
17891;DHT22;9071;48.220;14.480;2023-06-05T18:35:16;17.40;99.90
17891;DHT22;9071;48.220;14.480;2023-06-05T18:40:21;17.40;99.90
17891;DHT22;9071;48.220;14.480;2023-06-05T18:45:24;17.30;99.90
17891;DHT22;9071;48.220;14.480;2023-06-05T18:50:26;17.30;99.90
17891;DHT22;9071;48.220;14.480;2023-06-05T18:55:30;17.20;99.90
17891;DHT22;9071;48.220;14.480;2023-06-05T19:00:32;17.10;99.90
17891;DHT22;9071;48.220;14.480;2023-06-05T19:05:34;17.00;99.90
17891;DHT22;9071;48.220;14.480;2023-06-05T19:10:38;17.10;99.90
17891;DHT22;9071;48.220;14.480;2023-06-05T19:15:40;17.10;99.90
17891;DHT22;9071;48.220;14.480;2023-06-05T19:20:42;17.00;99.90
17891;DHT22;9071;48.220;14.480;2023-06-05T19:25:46;16.90;99.90
17891;DHT22;9071;48.220;14.480;2023-06-05T19:30:48;16.90;99.90
17891;DHT22;9071;48.220;14.480;2023-06-05T19:35:50;16.90;99.90
17891;DHT22;9071;48.220;14.480;2023-06-05T19:40:54;16.90;99.90
17891;DHT22;9071;48.220;14.480;2023-06-05T19:45:57;16.80;99.90
17891;DHT22;9071;48.220;14.480;2023-06-05T19:50:59;16.80;99.90
17891;DHT22;9071;48.220;14.480;2023-06-05T19:56:02;16.80;99.90
17891;DHT22;9071;48.220;14.480;2023-06-05T20:01:04;16.80;99.90
17891;DHT22;9071;48.220;14.480;2023-06-05T20:06:06;16.80;99.90
17891;DHT22;9071;48.220;14.480;2023-06-05T20:11:10;16.70;99.90
17891;DHT22;9071;48.220;14.480;2023-06-05T20:16:13;16.70;99.90
17891;DHT22;9071;48.220;14.480;2023-06-05T20:21:15;16.70;99.90
17891;DHT22;9071;48.220;14.480;2023-06-05T20:26:19;16.70;99.90
17891;DHT22;9071;48.220;14.480;2023-06-05T20:31:21;16.60;99.90
17891;DHT22;9071;48.220;14.480;2023-06-05T20:36:23;16.60;99.90
17891;DHT22;9071;48.220;14.480;2023-06-05T20:41:26;16.60;99.90
17891;DHT22;9071;48.220;14.480;2023-06-05T20:46:29;16.50;99.90
17891;DHT22;9071;48.220;14.480;2023-06-05T20:51:31;16.50;99.90
17891;DHT22;9071;48.220;14.480;2023-06-05T20:56:34;16.50;99.90
17891;DHT22;9071;48.220;14.480;2023-06-05T21:01:36;16.40;99.90
17891;DHT22;9071;48.220;14.480;2023-06-05T21:06:39;16.40;99.90
17891;DHT22;9071;48.220;14.480;2023-06-05T21:11:42;16.30;99.90
17891;DHT22;9071;48.220;14.480;2023-06-05T21:16:44;16.40;99.90
17891;DHT22;9071;48.220;14.480;2023-06-05T21:21:46;16.30;99.90
17891;DHT22;9071;48.220;14.480;2023-06-05T21:26:50;16.30;99.90
17891;DHT22;9071;48.220;14.480;2023-06-05T21:31:52;16.30;99.90
17891;DHT22;9071;48.220;14.480;2023-06-05T21:36:54;16.30;99.90
17891;DHT22;9071;48.220;14.480;2023-06-05T21:41:57;16.30;99.90
17891;DHT22;9071;48.220;14.480;2023-06-05T21:46:59;16.30;99.90
17891;DHT22;9071;48.220;14.480;2023-06-05T21:52:01;16.30;99.90
17891;DHT22;9071;48.220;14.480;2023-06-05T21:57:05;16.20;99.90
17891;DHT22;9071;48.220;14.480;2023-06-05T22:02:08;16.20;99.90
17891;DHT22;9071;48.220;14.480;2023-06-05T22:07:10;16.30;99.90
17891;DHT22;9071;48.220;14.480;2023-06-05T22:12:15;16.20;99.90
17891;DHT22;9071;48.220;14.480;2023-06-05T22:17:21;16.20;99.90
17891;DHT22;9071;48.220;14.480;2023-06-05T22:22:26;16.20;99.90
17891;DHT22;9071;48.220;14.480;2023-06-05T22:27:29;16.20;99.90
17891;DHT22;9071;48.220;14.480;2023-06-05T22:32:31;16.20;99.90
17891;DHT22;9071;48.220;14.480;2023-06-05T22:37:33;16.20;99.90
17891;DHT22;9071;48.220;14.480;2023-06-05T22:42:40;16.20;99.90
17891;DHT22;9071;48.220;14.480;2023-06-05T22:47:42;16.20;99.90
17891;DHT22;9071;48.220;14.480;2023-06-05T22:52:45;16.10;99.90
17891;DHT22;9071;48.220;14.480;2023-06-05T22:57:49;16.10;99.90
17891;DHT22;9071;48.220;14.480;2023-06-05T23:02:51;16.20;99.90
17891;DHT22;9071;48.220;14.480;2023-06-05T23:07:54;16.10;99.90
17891;DHT22;9071;48.220;14.480;2023-06-05T23:12:58;16.10;99.90
17891;DHT22;9071;48.220;14.480;2023-06-05T23:18:00;16.10;99.90
17891;DHT22;9071;48.220;14.480;2023-06-05T23:23:02;16.10;99.90
17891;DHT22;9071;48.220;14.480;2023-06-05T23:28:05;16.10;99.90
17891;DHT22;9071;48.220;14.480;2023-06-05T23:33:10;16.10;99.90
17891;DHT22;9071;48.220;14.480;2023-06-05T23:38:13;16.10;99.90
17891;DHT22;9071;48.220;14.480;2023-06-05T23:43:16;16.10;99.90
17891;DHT22;9071;48.220;14.480;2023-06-05T23:48:18;16.10;99.90
17891;DHT22;9071;48.220;14.480;2023-06-05T23:53:20;16.10;99.90
17891;DHT22;9071;48.220;14.480;2023-06-05T23:58:24;16.00;99.90
